sensor_id;sensor_type;location;lat;lon;timestamp;pressure;altitude;pressure_sealevel;temperature;humidity
65880;BME280;52661;51.364;6.054;2023-03-22T00:01:11;100676.72;;;11.97;100.00
65880;BME280;52661;51.364;6.054;2023-03-22T00:03:37;100673.59;;;11.98;100.00
65880;BME280;52661;51.364;6.054;2023-03-22T00:06:03;100669.34;;;11.97;100.00
65880;BME280;52661;51.364;6.054;2023-03-22T00:08:28;100662.34;;;11.96;100.00
65880;BME280;52661;51.364;6.054;2023-03-22T00:10:54;100664.63;;;12.01;100.00
65880;BME280;52661;51.364;6.054;2023-03-22T00:13:19;100663.09;;;12.00;100.00
65880;BME280;52661;51.364;6.054;2023-03-22T00:15:45;100659.16;;;12.05;100.00
65880;BME280;52661;51.364;6.054;2023-03-22T00:18:16;100655.72;;;12.01;100.00
65880;BME280;52661;51.364;6.054;2023-03-22T00:20:53;100653.03;;;11.97;100.00
65880;BME280;52661;51.364;6.054;2023-03-22T00:23:18;100656.13;;;11.99;100.00
65880;BME280;52661;51.364;6.054;2023-03-22T00:25:45;100650.69;;;11.96;100.00
65880;BME280;52661;51.364;6.054;2023-03-22T00:28:11;100655.75;;;11.97;100.00
65880;BME280;52661;51.364;6.054;2023-03-22T00:30:37;100643.69;;;11.98;100.00
65880;BME280;52661;51.364;6.054;2023-03-22T00:33:03;100641.78;;;11.92;100.00
65880;BME280;52661;51.364;6.054;2023-03-22T00:35:28;100642.59;;;11.85;100.00
65880;BME280;52661;51.364;6.054;2023-03-22T00:37:54;100642.19;;;11.87;100.00
65880;BME280;52661;51.364;6.054;2023-03-22T00:40:19;100629.00;;;11.85;100.00
65880;BME280;52661;51.364;6.054;2023-03-22T00:42:44;100635.63;;;11.80;100.00
65880;BME280;52661;51.364;6.054;2023-03-22T00:45:10;100632.94;;;11.77;100.00
65880;BME280;52661;51.364;6.054;2023-03-22T00:47:36;100632.19;;;11.73;100.00
65880;BME280;52661;51.364;6.054;2023-03-22T00:50:03;100621.31;;;11.66;100.00
65880;BME280;52661;51.364;6.054;2023-03-22T00:52:29;100618.22;;;11.67;100.00
65880;BME280;52661;51.364;6.054;2023-03-22T00:54:55;100625.22;;;11.61;100.00
65880;BME280;52661;51.364;6.054;2023-03-22T00:57:20;100615.94;;;11.59;100.00
65880;BME280;52661;51.364;6.054;2023-03-22T00:59:46;100621.38;;;11.55;100.00
65880;BME280;52661;51.364;6.054;2023-03-22T01:02:11;100608.22;;;11.47;100.00
65880;BME280;52661;51.364;6.054;2023-03-22T01:04:41;100609.00;;;11.44;100.00
65880;BME280;52661;51.364;6.054;2023-03-22T01:07:12;100602.44;;;11.41;100.00
65880;BME280;52661;51.364;6.054;2023-03-22T01:09:43;100595.88;;;11.39;100.00
65880;BME280;52661;51.364;6.054;2023-03-22T01:12:08;100598.59;;;11.35;100.00
65880;BME280;52661;51.364;6.054;2023-03-22T01:14:33;100596.25;;;11.37;100.00
65880;BME280;52661;51.364;6.054;2023-03-22T01:16:59;100592.38;;;11.34;100.00
65880;BME280;52661;51.364;6.054;2023-03-22T01:19:24;100590.84;;;11.30;100.00
65880;BME280;52661;51.364;6.054;2023-03-22T01:21:51;100587.34;;;11.29;100.00
65880;BME280;52661;51.364;6.054;2023-03-22T01:24:17;100571.47;;;11.24;100.00
65880;BME280;52661;51.364;6.054;2023-03-22T01:26:42;100574.53;;;11.30;100.00
65880;BME280;52661;51.364;6.054;2023-03-22T01:29:08;100564.06;;;11.32;100.00
65880;BME280;52661;51.364;6.054;2023-03-22T01:31:33;100573.78;;;11.26;100.00
65880;BME280;52661;51.364;6.054;2023-03-22T01:33:59;100566.41;;;11.26;100.00
65880;BME280;52661;51.364;6.054;2023-03-22T01:36:24;100560.63;;;11.24;100.00
65880;BME280;52661;51.364;6.054;2023-03-22T01:38:50;100562.09;;;11.32;100.00
65880;BME280;52661;51.364;6.054;2023-03-22T01:41:16;100557.44;;;11.33;100.00
65880;BME280;52661;51.364;6.054;2023-03-22T01:43:41;100551.66;;;11.31;100.00
65880;BME280;52661;51.364;6.054;2023-03-22T01:46:06;100544.69;;;11.26;100.00
65880;BME280;52661;51.364;6.054;2023-03-22T01:48:35;100545.44;;;11.30;100.00
65880;BME280;52661;51.364;6.054;2023-03-22T01:51:08;100535.75;;;11.26;100.00
65880;BME280;52661;51.364;6.054;2023-03-22T01:53:49;100537.31;;;11.23;100.00
65880;BME280;52661;51.364;6.054;2023-03-22T01:56:18;100520.25;;;11.23;100.00
65880;BME280;52661;51.364;6.054;2023-03-22T01:58:47;100524.91;;;11.22;100.00
65880;BME280;52661;51.364;6.054;2023-03-22T02:01:13;100518.28;;;11.27;100.00
65880;BME280;52661;51.364;6.054;2023-03-22T02:03:58;100518.34;;;11.16;100.00
65880;BME280;52661;51.364;6.054;2023-03-22T02:06:28;100506.72;;;11.16;100.00
65880;BME280;52661;51.364;6.054;2023-03-22T02:08:54;100500.13;;;11.13;100.00
65880;BME280;52661;51.364;6.054;2023-03-22T02:11:34;100497.81;;;11.08;100.00
65880;BME280;52661;51.364;6.054;2023-03-22T02:25:32;100478.13;;;10.94;100.00
65880;BME280;52661;51.364;6.054;2023-03-22T02:28:17;100475.34;;;11.01;100.00
65880;BME280;52661;51.364;6.054;2023-03-22T02:39:12;100464.56;;;10.86;100.00
65880;BME280;52661;51.364;6.054;2023-03-22T02:41:48;100461.88;;;10.86;100.00
65880;BME280;52661;51.364;6.054;2023-03-22T02:44:25;100467.72;;;10.85;100.00
65880;BME280;52661;51.364;6.054;2023-03-22T02:47:03;100472.75;;;10.83;100.00
65880;BME280;52661;51.364;6.054;2023-03-22T02:49:35;100473.13;;;10.85;100.00
65880;BME280;52661;51.364;6.054;2023-03-22T02:52:20;100467.72;;;10.85;100.00
65880;BME280;52661;51.364;6.054;2023-03-22T02:57:26;100468.88;;;10.80;100.00
65880;BME280;52661;51.364;6.054;2023-03-22T02:59:53;100458.44;;;10.72;100.00
65880;BME280;52661;51.364;6.054;2023-03-22T03:02:20;100453.00;;;10.72;100.00
65880;BME280;52661;51.364;6.054;2023-03-22T03:04:49;100447.59;;;10.72;100.00
65880;BME280;52661;51.364;6.054;2023-03-22T03:07:19;100449.13;;;10.73;100.00
65880;BME280;52661;51.364;6.054;2023-03-22T03:09:46;100461.56;;;10.74;100.00
65880;BME280;52661;51.364;6.054;2023-03-22T03:12:20;100451.47;;;10.71;100.00
65880;BME280;52661;51.364;6.054;2023-03-22T03:14:47;100450.34;;;10.65;100.00
65880;BME280;52661;51.364;6.054;2023-03-22T03:34:25;100449.59;;;10.54;100.00
65880;BME280;52661;51.364;6.054;2023-03-22T03:37:02;100457.72;;;10.57;100.00
65880;BME280;52661;51.364;6.054;2023-03-22T03:39:31;100446.09;;;10.60;100.00
65880;BME280;52661;51.364;6.054;2023-03-22T03:41:59;100440.28;;;10.58;100.00
65880;BME280;52661;51.364;6.054;2023-03-22T03:44:25;100443.00;;;10.62;100.00
65880;BME280;52661;51.364;6.054;2023-03-22T03:46:51;100434.88;;;10.55;100.00
65880;BME280;52661;51.364;6.054;2023-03-22T03:49:19;100439.91;;;10.56;100.00
65880;BME280;52661;51.364;6.054;2023-03-22T03:51:55;100432.16;;;10.55;100.00
65880;BME280;52661;51.364;6.054;2023-03-22T03:54:21;100433.72;;;10.56;100.00
65880;BME280;52661;51.364;6.054;2023-03-22T03:56:47;100439.56;;;10.47;100.00
65880;BME280;52661;51.364;6.054;2023-03-22T03:59:14;100432.50;;;10.60;100.00
65880;BME280;52661;51.364;6.054;2023-03-22T04:01:42;100437.97;;;10.53;100.00
65880;BME280;52661;51.364;6.054;2023-03-22T04:04:24;100434.50;;;10.49;100.00
65880;BME280;52661;51.364;6.054;2023-03-22T04:07:01;100436.06;;;10.50;100.00
65880;BME280;52661;51.364;6.054;2023-03-22T04:09:32;100437.19;;;10.53;100.00
65880;BME280;52661;51.364;6.054;2023-03-22T04:11:59;100424.41;;;10.53;100.00
65880;BME280;52661;51.364;6.054;2023-03-22T04:14:25;100431.38;;;10.54;100.00
65880;BME280;52661;51.364;6.054;2023-03-22T04:16:51;100439.91;;;10.56;100.00
65880;BME280;52661;51.364;6.054;2023-03-22T04:19:17;100437.59;;;10.51;100.00
65880;BME280;52661;51.364;6.054;2023-03-22T04:21:43;100442.59;;;10.56;100.00
65880;BME280;52661;51.364;6.054;2023-03-22T04:24:08;100428.69;;;10.51;100.00
65880;BME280;52661;51.364;6.054;2023-03-22T04:26:34;100425.97;;;10.54;100.00
65880;BME280;52661;51.364;6.054;2023-03-22T04:29:00;100429.44;;;10.55;100.00
65880;BME280;52661;51.364;6.054;2023-03-22T04:31:28;100429.03;;;10.56;100.00
65880;BME280;52661;51.364;6.054;2023-03-22T04:33:54;100422.88;;;10.52;100.00
65880;BME280;52661;51.364;6.054;2023-03-22T04:36:24;100420.91;;;10.56;100.00
65880;BME280;52661;51.364;6.054;2023-03-22T04:38:50;100417.03;;;10.54;100.00
65880;BME280;52661;51.364;6.054;2023-03-22T04:41:16;100420.91;;;10.56;100.00
65880;BME280;52661;51.364;6.054;2023-03-22T04:43:42;100420.53;;;10.54;100.00
65880;BME280;52661;51.364;6.054;2023-03-22T04:46:11;100419.75;;;10.54;100.00
65880;BME280;52661;51.364;6.054;2023-03-22T04:48:39;100424.03;;;10.55;100.00
65880;BME280;52661;51.364;6.054;2023-03-22T04:51:06;100429.03;;;10.56;100.00
65880;BME280;52661;51.364;6.054;2023-03-22T04:53:32;100425.16;;;10.57;100.00
65880;BME280;52661;51.364;6.054;2023-03-22T04:56:03;100420.91;;;10.56;100.00
65880;BME280;52661;51.364;6.054;2023-03-22T04:58:31;100422.84;;;10.59;100.00
65880;BME280;52661;51.364;6.054;2023-03-22T05:00:57;100413.94;;;10.55;100.00
65880;BME280;52661;51.364;6.054;2023-03-22T05:03:22;100415.09;;;10.58;100.00
65880;BME280;52661;51.364;6.054;2023-03-22T05:05:49;100414.75;;;10.52;100.00
65880;BME280;52661;51.364;6.054;2023-03-22T05:08:15;100417.44;;;10.56;100.00
65880;BME280;52661;51.364;6.054;2023-03-22T05:10:40;100413.53;;;10.57;100.00
65880;BME280;52661;51.364;6.054;2023-03-22T05:13:05;100411.59;;;10.57;100.00
65880;BME280;52661;51.364;6.054;2023-03-22T05:15:31;100410.47;;;10.51;100.00
65880;BME280;52661;51.364;6.054;2023-03-22T05:17:56;100410.50;;;10.48;100.00
65880;BME280;52661;51.364;6.054;2023-03-22T05:20:22;100417.47;;;10.49;100.00
65880;BME280;52661;51.364;6.054;2023-03-22T05:22:47;100413.56;;;10.53;100.00
65880;BME280;52661;51.364;6.054;2023-03-22T05:25:14;100405.03;;;10.55;100.00
65880;BME280;52661;51.364;6.054;2023-03-22T05:27:40;100414.75;;;10.49;100.00
65880;BME280;52661;51.364;6.054;2023-03-22T05:30:06;100412.03;;;10.49;100.00
65880;BME280;52661;51.364;6.054;2023-03-22T05:32:31;100412.41;;;10.51;100.00
65880;BME280;52661;51.364;6.054;2023-03-22T05:34:57;100420.91;;;10.53;100.00
65880;BME280;52661;51.364;6.054;2023-03-22T05:37:22;100415.88;;;10.55;100.00
65880;BME280;52661;51.364;6.054;2023-03-22T05:39:47;100425.19;;;10.54;100.00
65880;BME280;52661;51.364;6.054;2023-03-22T05:42:13;100431.03;;;10.52;100.00
65880;BME280;52661;51.364;6.054;2023-03-22T05:44:38;100421.69;;;10.53;100.00
65880;BME280;52661;51.364;6.054;2023-03-22T05:47:03;100422.44;;;10.57;100.00
65880;BME280;52661;51.364;6.054;2023-03-22T05:49:31;100429.06;;;10.53;100.00
65880;BME280;52661;51.364;6.054;2023-03-22T05:51:56;100423.63;;;10.53;100.00
65880;BME280;52661;51.364;6.054;2023-03-22T05:54:22;100422.44;;;10.57;100.00
65880;BME280;52661;51.364;6.054;2023-03-22T05:56:47;100415.50;;;10.53;100.00
65880;BME280;52661;51.364;6.054;2023-03-22T05:59:12;100412.00;;;10.56;100.00
65880;BME280;52661;51.364;6.054;2023-03-22T06:01:37;100406.97;;;10.54;100.00
65880;BME280;52661;51.364;6.054;2023-03-22T06:04:03;100403.47;;;10.57;100.00
65880;BME280;52661;51.364;6.054;2023-03-22T06:06:28;100403.09;;;10.55;100.00
65880;BME280;52661;51.364;6.054;2023-03-22T06:08:54;100404.25;;;10.54;100.00
65880;BME280;52661;51.364;6.054;2023-03-22T06:11:20;100406.56;;;10.59;100.00
65880;BME280;52661;51.364;6.054;2023-03-22T06:13:46;100396.47;;;10.56;100.00
65880;BME280;52661;51.364;6.054;2023-03-22T06:16:12;100398.78;;;10.61;100.00
65880;BME280;52661;51.364;6.054;2023-03-22T06:18:37;100387.16;;;10.61;100.00
65880;BME280;52661;51.364;6.054;2023-03-22T06:21:03;100396.88;;;10.58;100.00
65880;BME280;52661;51.364;6.054;2023-03-22T06:23:28;100399.59;;;10.58;100.00
65880;BME280;52661;51.364;6.054;2023-03-22T06:25:54;100395.28;;;10.61;100.00
65880;BME280;52661;51.364;6.054;2023-03-22T06:28:19;100410.06;;;10.60;100.00
65880;BME280;52661;51.364;6.054;2023-03-22T06:30:45;100405.00;;;10.58;100.00
65880;BME280;52661;51.364;6.054;2023-03-22T06:33:10;100405.41;;;10.57;100.00
65880;BME280;52661;51.364;6.054;2023-03-22T06:35:35;100397.25;;;10.57;100.00
65880;BME280;52661;51.364;6.054;2023-03-22T06:38:01;100406.91;;;10.65;100.00
65880;BME280;52661;51.364;6.054;2023-03-22T06:40:26;100405.00;;;10.62;100.00
65880;BME280;52661;51.364;6.054;2023-03-22T06:42:52;100411.53;;;10.68;100.00
65880;BME280;52661;51.364;6.054;2023-03-22T06:45:20;100415.44;;;10.70;100.00
65880;BME280;52661;51.364;6.054;2023-03-22T06:47:45;100401.06;;;10.73;100.00
65880;BME280;52661;51.364;6.054;2023-03-22T06:50:11;100408.03;;;10.71;100.00
65880;BME280;52661;51.364;6.054;2023-03-22T06:52:37;100419.31;;;10.69;100.00
65880;BME280;52661;51.364;6.054;2023-03-22T06:55:02;100409.22;;;10.70;100.00
65880;BME280;52661;51.364;6.054;2023-03-22T06:57:28;100408.81;;;10.71;100.00
65880;BME280;52661;51.364;6.054;2023-03-22T06:59:53;100401.84;;;10.74;100.00
65880;BME280;52661;51.364;6.054;2023-03-22T07:02:18;100403.34;;;10.75;100.00
65880;BME280;52661;51.364;6.054;2023-03-22T07:04:45;100406.47;;;10.77;100.00
65880;BME280;52661;51.364;6.054;2023-03-22T07:07:10;100408.81;;;10.71;100.00
65880;BME280;52661;51.364;6.054;2023-03-22T07:09:38;100408.44;;;10.69;100.00
65880;BME280;52661;51.364;6.054;2023-03-22T07:12:03;100400.28;;;10.73;100.00
65880;BME280;52661;51.364;6.054;2023-03-22T07:14:30;100395.25;;;10.68;100.00
65880;BME280;52661;51.364;6.054;2023-03-22T07:16:55;100399.16;;;10.67;100.00
65880;BME280;52661;51.364;6.054;2023-03-22T07:19:21;100402.59;;;10.71;100.00
65880;BME280;52661;51.364;6.054;2023-03-22T07:21:46;100409.59;;;10.72;100.00
65880;BME280;52661;51.364;6.054;2023-03-22T07:24:11;100404.91;;;10.76;100.00
65880;BME280;52661;51.364;6.054;2023-03-22T07:26:38;100410.72;;;10.78;100.00
65880;BME280;52661;51.364;6.054;2023-03-22T07:29:03;100410.66;;;10.89;100.00
65880;BME280;52661;51.364;6.054;2023-03-22T07:31:28;100423.84;;;10.90;100.00
65880;BME280;52661;51.364;6.054;2023-03-22T07:33:55;100417.94;;;11.02;100.00
65880;BME280;52661;51.364;6.054;2023-03-22T07:36:20;100410.94;;;11.05;100.00
65880;BME280;52661;51.364;6.054;2023-03-22T07:38:49;100407.44;;;11.04;100.00
65880;BME280;52661;51.364;6.054;2023-03-22T07:41:14;100414.06;;;11.00;100.00
65880;BME280;52661;51.364;6.054;2023-03-22T07:43:40;100410.91;;;11.08;100.00
65880;BME280;52661;51.364;6.054;2023-03-22T07:46:05;100417.16;;;11.02;100.00
65880;BME280;52661;51.364;6.054;2023-03-22T07:48:30;100417.50;;;11.07;100.00
65880;BME280;52661;51.364;6.054;2023-03-22T07:50:56;100413.28;;;11.03;100.00
65880;BME280;52661;51.364;6.054;2023-03-22T07:53:22;100422.56;;;11.05;100.00
65880;BME280;52661;51.364;6.054;2023-03-22T07:55:47;100412.81;;;11.15;100.00
65880;BME280;52661;51.364;6.054;2023-03-22T07:58:12;100408.59;;;11.10;100.00
65880;BME280;52661;51.364;6.054;2023-03-22T08:00:38;100415.50;;;11.15;100.00
65880;BME280;52661;51.364;6.054;2023-03-22T08:03:03;100406.22;;;11.12;100.00
65880;BME280;52661;51.364;6.054;2023-03-22T08:05:28;100412.75;;;11.22;100.00
65880;BME280;52661;51.364;6.054;2023-03-22T08:07:54;100412.31;;;11.30;100.00
65880;BME280;52661;51.364;6.054;2023-03-22T08:10:21;100419.25;;;11.35;100.00
65880;BME280;52661;51.364;6.054;2023-03-22T08:12:46;100411.75;;;11.50;100.00
65880;BME280;52661;51.364;6.054;2023-03-22T08:15:12;100409.09;;;11.46;100.00
65880;BME280;52661;51.364;6.054;2023-03-22T08:17:37;100418.69;;;11.54;100.00
65880;BME280;52661;51.364;6.054;2023-03-22T08:20:03;100421.81;;;11.56;100.00
65880;BME280;52661;51.364;6.054;2023-03-22T08:22:34;100413.28;;;11.51;100.00
65880;BME280;52661;51.364;6.054;2023-03-22T08:24:59;100416.69;;;11.62;100.00
65880;BME280;52661;51.364;6.054;2023-03-22T08:27:25;100412.88;;;11.56;100.00
65880;BME280;52661;51.364;6.054;2023-03-22T08:29:51;100400.72;;;11.67;100.00
65880;BME280;52661;51.364;6.054;2023-03-22T08:32:16;100402.66;;;11.67;100.00
65880;BME280;52661;51.364;6.054;2023-03-22T08:34:42;100417.34;;;11.76;100.00
65880;BME280;52661;51.364;6.054;2023-03-22T08:37:09;100419.22;;;11.83;100.00
65880;BME280;52661;51.364;6.054;2023-03-22T08:39:36;100409.97;;;11.77;100.00
65880;BME280;52661;51.364;6.054;2023-03-22T08:42:02;100416.63;;;11.72;100.00
65880;BME280;52661;51.364;6.054;2023-03-22T08:44:28;100416.59;;;11.76;100.00
65880;BME280;52661;51.364;6.054;2023-03-22T08:46:53;100422.75;;;11.80;100.00
65880;BME280;52661;51.364;6.054;2023-03-22T08:49:19;100428.63;;;11.78;100.00
65880;BME280;52661;51.364;6.054;2023-03-22T08:51:44;100436.81;;;11.75;100.00
65880;BME280;52661;51.364;6.054;2023-03-22T08:54:10;100427.03;;;11.81;100.00
65880;BME280;52661;51.364;6.054;2023-03-22T08:56:36;100417.66;;;11.86;100.00
65880;BME280;52661;51.364;6.054;2023-03-22T08:59:05;100425.38;;;11.91;100.00
65880;BME280;52661;51.364;6.054;2023-03-22T09:01:32;100438.38;;;11.72;100.00
65880;BME280;52661;51.364;6.054;2023-03-22T09:03:57;100422.78;;;11.76;100.00
65880;BME280;52661;51.364;6.054;2023-03-22T09:06:23;100418.13;;;11.77;100.00
65880;BME280;52661;51.364;6.054;2023-03-22T09:08:51;100412.97;;;11.90;100.00
65880;BME280;52661;51.364;6.054;2023-03-22T09:11:16;100415.22;;;11.95;100.00
65880;BME280;52661;51.364;6.054;2023-03-22T09:13:42;100410.56;;;11.95;100.00
65880;BME280;52661;51.364;6.054;2023-03-22T09:16:08;100414.03;;;11.99;100.00
65880;BME280;52661;51.364;6.054;2023-03-22T09:18:34;100420.97;;;12.04;100.00
65880;BME280;52661;51.364;6.054;2023-03-22T09:21:00;100407.63;;;12.16;100.00
65880;BME280;52661;51.364;6.054;2023-03-22T09:23:26;100398.16;;;12.28;100.00
65880;BME280;52661;51.364;6.054;2023-03-22T09:25:51;100398.41;;;12.41;100.00
65880;BME280;52661;51.364;6.054;2023-03-22T09:28:17;100436.78;;;12.50;100.00
65880;BME280;52661;51.364;6.054;2023-03-22T09:30:43;100413.66;;;12.31;100.00
65880;BME280;52661;51.364;6.054;2023-03-22T09:33:09;100391.72;;;12.45;100.00
65880;BME280;52661;51.364;6.054;2023-03-22T09:35:39;100400.75;;;12.39;100.00
65880;BME280;52661;51.364;6.054;2023-03-22T09:38:05;100398.09;;;12.31;100.00
65880;BME280;52661;51.364;6.054;2023-03-22T09:40:32;100397.94;;;12.46;100.00
65880;BME280;52661;51.364;6.054;2023-03-22T09:43:00;100393.53;;;12.55;100.00
65880;BME280;52661;51.364;6.054;2023-03-22T09:45:33;100401.81;;;12.45;100.00
65880;BME280;52661;51.364;6.054;2023-03-22T09:48:05;100402.88;;;12.54;100.00
65880;BME280;52661;51.364;6.054;2023-03-22T09:50:32;100413.88;;;12.47;100.00
65880;BME280;52661;51.364;6.054;2023-03-22T09:52:59;100407.19;;;12.52;100.00
65880;BME280;52661;51.364;6.054;2023-03-22T09:55:35;100400.22;;;12.51;100.00
65880;BME280;52661;51.364;6.054;2023-03-22T09:58:22;100409.28;;;12.41;100.00
65880;BME280;52661;51.364;6.054;2023-03-22T10:00:57;100399.25;;;12.34;100.00
65880;BME280;52661;51.364;6.054;2023-03-22T10:06:22;100398.56;;;12.57;100.00
65880;BME280;52661;51.364;6.054;2023-03-22T10:11:24;100396.28;;;12.52;100.00
65880;BME280;52661;51.364;6.054;2023-03-22T10:13:56;100388.00;;;12.62;100.00
65880;BME280;52661;51.364;6.054;2023-03-22T10:16:27;100388.00;;;12.62;100.00
65880;BME280;52661;51.364;6.054;2023-03-22T10:18:59;100380.28;;;12.57;100.00
65880;BME280;52661;51.364;6.054;2023-03-22T10:21:26;100384.03;;;12.67;100.00
65880;BME280;52661;51.364;6.054;2023-03-22T10:23:58;100382.84;;;12.68;100.00
65880;BME280;52661;51.364;6.054;2023-03-22T10:26:33;100391.94;;;12.58;100.00
65880;BME280;52661;51.364;6.054;2023-03-22T10:29:04;100393.06;;;12.60;100.00
65880;BME280;52661;51.364;6.054;2023-03-22T10:31:32;100381.09;;;12.54;100.00
65880;BME280;52661;51.364;6.054;2023-03-22T10:34:15;100384.97;;;12.57;100.00
65880;BME280;52661;51.364;6.054;2023-03-22T10:36:45;100388.50;;;12.54;100.00
65880;BME280;52661;51.364;6.054;2023-03-22T10:39:23;100383.06;;;12.54;100.00
65880;BME280;52661;51.364;6.054;2023-03-22T10:41:53;100382.97;;;12.61;100.00
65880;BME280;52661;51.364;6.054;2023-03-22T10:44:20;100378.72;;;12.56;100.00
65880;BME280;52661;51.364;6.054;2023-03-22T10:46:47;100391.38;;;12.43;100.00
65880;BME280;52661;51.364;6.054;2023-03-22T10:49:31;100379.59;;;12.50;100.00
65880;BME280;52661;51.364;6.054;2023-03-22T10:52:02;100368.66;;;12.53;100.00
65880;BME280;52661;51.364;6.054;2023-03-22T10:54:28;100373.25;;;12.60;100.00
65880;BME280;52661;51.364;6.054;2023-03-22T10:56:54;100378.69;;;12.60;100.00
65880;BME280;52661;51.364;6.054;2023-03-22T11:02:28;100372.22;;;12.50;100.00
65880;BME280;52661;51.364;6.054;2023-03-22T11:04:55;100374.16;;;12.50;100.00
65880;BME280;52661;51.364;6.054;2023-03-22T11:07:35;100366.00;;;12.50;100.00
65880;BME280;52661;51.364;6.054;2023-03-22T11:12:49;100389.75;;;12.46;100.00
65880;BME280;52661;51.364;6.054;2023-03-22T11:17:49;100382.31;;;12.50;100.00
65880;BME280;52661;51.364;6.054;2023-03-22T11:20:16;100380.28;;;12.57;100.00
65880;BME280;52661;51.364;6.054;2023-03-22T11:22:44;100369.84;;;12.52;100.00
65880;BME280;52661;51.364;6.054;2023-03-22T11:25:27;100376.97;;;12.43;100.00
65880;BME280;52661;51.364;6.054;2023-03-22T11:30:34;100376.94;;;12.46;100.00
65880;BME280;52661;51.364;6.054;2023-03-22T11:33:18;100383.19;;;12.43;100.00
65880;BME280;52661;51.364;6.054;2023-03-22T11:35:46;100387.72;;;12.53;100.00
65880;BME280;52661;51.364;6.054;2023-03-22T11:40:59;100387.78;;;12.50;100.00
65880;BME280;52661;51.364;6.054;2023-03-22T11:43:30;100379.25;;;12.48;100.00
65880;BME280;52661;51.364;6.054;2023-03-22T11:45:57;100375.72;;;12.51;100.00
65880;BME280;52661;51.364;6.054;2023-03-22T11:48:26;100371.13;;;12.44;100.00
65880;BME280;52661;51.364;6.054;2023-03-22T11:50:54;100370.94;;;12.58;100.00
65880;BME280;52661;51.364;6.054;2023-03-22T11:53:24;100370.94;;;12.58;100.00
65880;BME280;52661;51.364;6.054;2023-03-22T11:55:53;100367.78;;;12.60;100.00
65880;BME280;52661;51.364;6.054;2023-03-22T11:58:52;100364.72;;;12.58;100.00
65880;BME280;52661;51.364;6.054;2023-03-22T12:04:17;100375.91;;;12.63;100.00
65880;BME280;52661;51.364;6.054;2023-03-22T12:06:44;100374.84;;;12.57;100.00
65880;BME280;52661;51.364;6.054;2023-03-22T12:09:42;100372.84;;;12.61;100.00
65880;BME280;52661;51.364;6.054;2023-03-22T12:12:23;100367.44;;;12.58;100.00
65880;BME280;52661;51.364;6.054;2023-03-22T12:15:03;100371.19;;;12.67;100.00
65880;BME280;52661;51.364;6.054;2023-03-22T12:20:40;100379.84;;;12.62;100.00
65880;BME280;52661;51.364;6.054;2023-03-22T12:23:16;100371.19;;;12.67;100.00
65880;BME280;52661;51.364;6.054;2023-03-22T12:25:49;100378.19;;;12.68;100.00
65880;BME280;52661;51.364;6.054;2023-03-22T12:28:20;100388.34;;;12.64;100.00
65880;BME280;52661;51.364;6.054;2023-03-22T12:30:50;100384.34;;;12.72;100.00
65880;BME280;52661;51.364;6.054;2023-03-22T12:35:45;100375.91;;;12.63;100.00
65880;BME280;52661;51.364;6.054;2023-03-22T12:38:51;100389.03;;;12.72;100.00
65880;BME280;52661;51.364;6.054;2023-03-22T12:41:41;100392.28;;;12.60;100.00
65880;BME280;52661;51.364;6.054;2023-03-22T12:44:29;100375.44;;;12.42;100.00
65880;BME280;52661;51.364;6.054;2023-03-22T12:47:04;100387.91;;;12.39;100.00
65880;BME280;52661;51.364;6.054;2023-03-22T12:49:35;100378.97;;;12.39;100.00
65880;BME280;52661;51.364;6.054;2023-03-22T12:52:30;100367.72;;;12.37;100.00
65880;BME280;52661;51.364;6.054;2023-03-22T12:54:59;100366.88;;;12.43;100.00
65880;BME280;52661;51.364;6.054;2023-03-22T12:57:25;100367.25;;;12.42;100.00
65880;BME280;52661;51.364;6.054;2023-03-22T12:59:52;100353.50;;;12.52;100.00
65880;BME280;52661;51.364;6.054;2023-03-22T13:02:32;100350.06;;;12.48;100.00
65880;BME280;52661;51.364;6.054;2023-03-22T13:05:04;100342.66;;;12.49;100.00
65880;BME280;52661;51.364;6.054;2023-03-22T13:07:36;100339.84;;;12.56;100.00
65880;BME280;52661;51.364;6.054;2023-03-22T13:15:34;100324.97;;;12.64;100.00
65880;BME280;52661;51.364;6.054;2023-03-22T13:18:01;100329.13;;;12.72;100.00
65880;BME280;52661;51.364;6.054;2023-03-22T13:20:29;100332.72;;;12.65;100.00
65880;BME280;52661;51.364;6.054;2023-03-22T13:23:00;100334.50;;;12.75;100.00
65880;BME280;52661;51.364;6.054;2023-03-22T13:25:28;100325.22;;;12.73;100.00
65880;BME280;52661;51.364;6.054;2023-03-22T13:27:59;100321.97;;;12.81;100.00
65880;BME280;52661;51.364;6.054;2023-03-22T13:30:33;100321.91;;;12.85;100.00
65880;BME280;52661;51.364;6.054;2023-03-22T13:35:48;100329.00;;;12.79;100.00
65880;BME280;52661;51.364;6.054;2023-03-22T13:43:46;100327.34;;;12.85;100.00
65880;BME280;52661;51.364;6.054;2023-03-22T13:59:24;100316.78;;;12.91;100.00
65880;BME280;52661;51.364;6.054;2023-03-22T14:02:16;100309.38;;;12.91;100.00
65880;BME280;52661;51.364;6.054;2023-03-22T14:05:06;100317.13;;;12.93;100.00
65880;BME280;52661;51.364;6.054;2023-03-22T14:07:57;100323.69;;;12.95;100.00
65880;BME280;52661;51.364;6.054;2023-03-22T14:12:59;100330.69;;;12.96;100.00
65880;BME280;52661;51.364;6.054;2023-03-22T14:15:32;100335.78;;;12.94;100.00
65880;BME280;52661;51.364;6.054;2023-03-22T14:18:11;100332.28;;;12.94;100.00
65880;BME280;52661;51.364;6.054;2023-03-22T14:20:39;100318.25;;;12.95;100.00
65880;BME280;52661;51.364;6.054;2023-03-22T14:23:13;100323.00;;;12.91;100.00
65880;BME280;52661;51.364;6.054;2023-03-22T14:25:40;100319.78;;;12.96;100.00